Time;durP1;ratioP1;P1;durP2;ratioP2;P2;SDS_P1;SDS_P2;PMS_P1;PMS_P2;Temp;Humidity;BMP_temperature;BMP_pressure;BME280_temperature;BME280_humidity;BME280_pressure;Samples;Min_cycle;Max_cycle;Signal;HPM_P1;HPM_P2
2023/07/31 00:01:24;;;;;;;5.07;1.17;;;;;;;15.11;100.00;100590.06;5034860;28;20469;-69
2023/07/31 00:03:52;;;;;;;6.03;1.40;;;;;;;15.10;100.00;100591.19;5034828;28;20453;-69
2023/07/31 00:06:19;;;;;;;5.80;1.37;;;;;;;15.10;100.00;100584.94;5034422;28;21018;-69
2023/07/31 00:08:45;;;;;;;8.60;1.20;;;;;;;15.10;100.00;100591.19;5034735;28;20483;-69
2023/07/31 00:11:12;;;;;;;6.40;1.03;;;;;;;15.18;100.00;100594.19;5034387;28;20537;-69
2023/07/31 00:13:38;;;;;;;5.57;1.17;;;;;;;15.22;100.00;100593.19;5034944;28;20553;-69
2023/07/31 00:16:05;;;;;;;4.80;0.97;;;;;;;15.29;100.00;100585.28;5034420;28;20482;-69
2023/07/31 00:18:32;;;;;;;6.40;1.00;;;;;;;15.30;100.00;100578.69;5033531;28;20813;-69
2023/07/31 00:21:00;;;;;;;5.47;1.20;;;;;;;15.28;100.00;100586.41;5034539;28;20531;-71
2023/07/31 00:23:26;;;;;;;5.40;1.00;;;;;;;15.25;100.00;100581.59;5034617;28;20447;-71
2023/07/31 00:25:53;;;;;;;5.70;1.30;;;;;;;15.24;100.00;100579.22;5033982;28;20502;-71
2023/07/31 00:28:19;;;;;;;5.37;1.07;;;;;;;15.22;100.00;100573.28;5034394;28;20471;-71
2023/07/31 00:30:46;;;;;;;5.73;1.40;;;;;;;15.25;100.00;100572.63;5034028;28;20893;-71
2023/07/31 00:33:13;;;;;;;5.33;1.10;;;;;;;15.27;100.00;100575.81;5034066;28;20818;-71
2023/07/31 00:35:39;;;;;;;5.57;1.20;;;;;;;15.31;100.00;100574.00;5034159;28;20473;-71
2023/07/31 00:38:07;;;;;;;5.20;1.20;;;;;;;15.33;100.00;100566.31;5034284;28;20896;-71
2023/07/31 00:40:36;;;;;;;5.73;1.37;;;;;;;15.35;100.00;100575.75;5033792;28;20530;-71
2023/07/31 00:43:03;;;;;;;5.00;0.90;;;;;;;15.37;100.00;100565.31;5034025;28;20451;-71
2023/07/31 00:45:31;;;;;;;4.70;1.00;;;;;;;15.41;100.00;100561.91;5033704;28;20870;-71
2023/07/31 00:47:58;;;;;;;4.97;0.90;;;;;;;15.41;100.00;100556.47;5033761;28;20444;-71
2023/07/31 00:50:25;;;;;;;5.70;1.10;;;;;;;15.49;100.00;100561.03;5034433;28;20447;-71
2023/07/31 00:52:52;;;;;;;5.40;1.10;;;;;;;15.52;100.00;100558.44;5033931;28;20467;-71
2023/07/31 00:55:21;;;;;;;8.70;1.20;;;;;;;15.52;100.00;100561.16;5033778;28;20554;-71
2023/07/31 00:57:49;;;;;;;7.83;1.50;;;;;;;15.55;100.00;100563.22;5034374;28;20540;-72
2023/07/31 01:00:15;;;;;;;6.80;1.37;;;;;;;15.60;100.00;100556.75;5033849;28;20503;-72
2023/07/31 01:02:42;;;;;;;6.60;1.10;;;;;;;15.64;100.00;100563.19;5033744;28;20446;-72
2023/07/31 01:05:09;;;;;;;5.10;1.30;;;;;;;15.71;100.00;100555.22;5033413;28;20463;-71
2023/07/31 01:07:43;;;;;;;4.90;0.90;;;;;;;15.79;100.00;100557.06;5033621;28;20999;-71
2023/07/31 01:10:17;;;;;;;5.00;1.13;;;;;;;15.80;100.00;100553.19;5033800;28;20897;-71
2023/07/31 01:12:46;;;;;;;5.60;1.47;;;;;;;15.81;100.00;100554.03;5034356;28;20416;-71
2023/07/31 01:15:14;;;;;;;5.73;1.30;;;;;;;15.80;100.00;100547.75;5033391;28;20505;-71
2023/07/31 01:17:42;;;;;;;5.50;1.23;;;;;;;15.81;100.00;100557.56;5033232;28;20854;-71
2023/07/31 01:20:13;;;;;;;4.97;1.20;;;;;;;15.79;100.00;100551.63;5033273;28;20534;-71
2023/07/31 01:23:27;;;;;;;5.73;1.63;;;;;;;15.85;100.00;100549.50;5033253;28;20428;-71
2023/07/31 01:26:04;;;;;;;5.20;1.40;;;;;;;15.91;100.00;100559.06;4994910;28;20471;-72
2023/07/31 01:28:40;;;;;;;5.03;1.10;;;;;;;15.92;100.00;100548.91;5033625;28;20433;-72
2023/07/31 01:31:10;;;;;;;5.00;1.13;;;;;;;15.92;100.00;100557.13;5033223;28;20465;-72
2023/07/31 01:33:38;;;;;;;5.47;1.57;;;;;;;15.95;100.00;100559.97;5033818;28;20791;-71
2023/07/31 01:36:05;;;;;;;5.67;1.50;;;;;;;15.97;100.00;100556.91;5033226;28;20554;-71
2023/07/31 01:38:32;;;;;;;5.63;1.60;;;;;;;15.97;100.00;100549.50;5033113;28;20446;-72
2023/07/31 01:41:00;;;;;;;4.90;1.00;;;;;;;15.95;100.00;100542.78;5034077;28;20453;-73
2023/07/31 01:43:26;;;;;;;5.20;1.37;;;;;;;15.93;100.00;100545.84;5033705;28;20533;-73
2023/07/31 01:45:53;;;;;;;5.73;1.20;;;;;;;15.93;100.00;100526.72;5033226;28;20466;-74
2023/07/31 01:48:20;;;;;;;5.23;1.43;;;;;;;15.90;100.00;100532.88;5032993;28;20963;-74
2023/07/31 01:50:46;;;;;;;5.70;1.60;;;;;;;15.83;100.00;100536.16;5033247;28;20478;-74
2023/07/31 01:53:13;;;;;;;5.00;1.20;;;;;;;15.82;100.00;100539.22;5033001;28;21014;-74
2023/07/31 01:55:39;;;;;;;5.40;1.50;;;;;;;15.86;100.00;100535.47;5032852;28;21065;-74
2023/07/31 01:58:07;;;;;;;5.60;1.27;;;;;;;15.86;100.00;100526.50;5032961;28;20529;-74
2023/07/31 02:00:34;;;;;;;5.10;1.03;;;;;;;15.93;100.00;100528.66;5033185;28;20788;-74
2023/07/31 02:03:01;;;;;;;5.37;1.50;;;;;;;15.95;100.00;100526.41;5033604;28;20477;-73
2023/07/31 02:05:27;;;;;;;4.70;0.93;;;;;;;15.96;100.00;100522.53;5033473;28;20498;-73
2023/07/31 02:07:54;;;;;;;4.90;1.13;;;;;;;15.97;100.00;100524.91;5053395;22;20534;-70
2023/07/31 02:10:21;;;;;;;5.27;1.43;;;;;;;16.00;100.00;100513.31;5059681;28;20866;-67
2023/07/31 02:12:47;;;;;;;5.13;1.20;;;;;;;16.04;100.00;100510.69;5039695;28;20446;-67
2023/07/31 02:15:15;;;;;;;5.63;1.60;;;;;;;16.06;100.00;100502.94;5062321;28;20464;-68
2023/07/31 02:17:43;;;;;;;5.47;1.63;;;;;;;16.11;100.00;100502.72;5065290;28;20539;-68
2023/07/31 02:20:10;;;;;;;4.80;1.10;;;;;;;16.15;100.00;100501.69;5064657;28;20450;-68
2023/07/31 02:22:37;;;;;;;14.00;2.23;;;;;;;16.13;100.00;100492.25;5064346;28;20441;-69
2023/07/31 02:25:03;;;;;;;6.53;1.40;;;;;;;16.16;100.00;100505.25;5064287;28;20496;-69
2023/07/31 02:27:30;;;;;;;5.83;1.47;;;;;;;16.20;100.00;100499.88;5064279;28;20466;-69
2023/07/31 02:29:59;;;;;;;5.40;1.20;;;;;;;16.21;100.00;100501.50;5064356;28;20505;-69
2023/07/31 02:32:27;;;;;;;7.97;1.50;;;;;;;16.24;100.00;100496.13;5064818;28;20537;-69
2023/07/31 02:34:53;;;;;;;5.63;1.50;;;;;;;16.24;100.00;100498.06;5065777;28;20469;-69
2023/07/31 02:37:20;;;;;;;6.90;1.63;;;;;;;16.23;100.00;100496.47;5065769;28;20512;-69
2023/07/31 02:39:47;;;;;;;6.20;1.83;;;;;;;16.24;100.00;100495.34;5065492;28;20445;-69
2023/07/31 02:42:13;;;;;;;7.10;1.70;;;;;;;16.24;100.00;100496.13;5067257;28;20453;-69
2023/07/31 02:44:40;;;;;;;6.80;1.90;;;;;;;16.21;100.00;100488.63;5068961;28;20498;-69
2023/07/31 02:47:07;;;;;;;6.27;1.10;;;;;;;16.24;100.00;100481.66;5068914;28;20434;-69
2023/07/31 02:49:36;;;;;;;5.10;1.00;;;;;;;16.23;100.00;100489.06;5067960;28;20445;-70
2023/07/31 02:52:03;;;;;;;5.27;1.27;;;;;;;16.27;100.00;100487.25;5067802;28;20497;-70
2023/07/31 02:54:29;;;;;;;4.80;1.00;;;;;;;16.27;100.00;100484.53;5073221;28;20464;-70
2023/07/31 02:56:56;;;;;;;5.87;1.90;;;;;;;16.27;100.00;100489.19;5069171;28;21066;-70
2023/07/31 02:59:22;;;;;;;5.43;1.10;;;;;;;16.27;100.00;100486.47;5069491;28;20450;-70
2023/07/31 03:01:49;;;;;;;5.67;1.37;;;;;;;16.27;100.00;100478.25;5069200;28;20473;-70
2023/07/31 03:04:16;;;;;;;5.57;1.40;;;;;;;16.28;100.00;100480.63;5069301;28;20472;-70
2023/07/31 03:06:44;;;;;;;6.13;1.67;;;;;;;16.25;100.00;100484.06;5069749;28;20471;-70
2023/07/31 03:09:10;;;;;;;5.77;1.53;;;;;;;16.27;100.00;100487.25;5069306;28;20481;-70
2023/07/31 03:11:37;;;;;;;5.83;1.43;;;;;;;16.28;100.00;100485.31;5068316;28;20529;-70
2023/07/31 03:14:03;;;;;;;5.13;1.40;;;;;;;16.23;100.00;100469.94;5068641;28;20532;-70
2023/07/31 03:16:30;;;;;;;7.20;2.03;;;;;;;16.22;100.00;100475.75;5070298;28;20478;-70
2023/07/31 03:18:56;;;;;;;7.30;1.90;;;;;;;16.10;100.00;100477.34;5069676;28;20576;-70
2023/07/31 03:21:24;;;;;;;6.40;1.80;;;;;;;16.07;100.00;100472.56;5067142;28;20438;-69
2023/07/31 03:23:52;;;;;;;6.33;2.20;;;;;;;16.08;100.00;100463.22;5067678;28;20529;-69
2023/07/31 03:26:18;;;;;;;6.37;2.10;;;;;;;16.08;100.00;100454.25;5069412;28;20469;-70
2023/07/31 03:28:45;;;;;;;5.30;1.63;;;;;;;16.12;100.00;100468.81;5069136;28;20469;-70
2023/07/31 03:31:12;;;;;;;10.13;2.17;;;;;;;16.08;100.00;100451.50;5071603;28;20438;-70
2023/07/31 03:33:39;;;;;;;6.90;1.50;;;;;;;16.10;100.00;100458.22;5067796;28;20478;-70
2023/07/31 03:36:07;;;;;;;6.13;1.67;;;;;;;16.08;100.00;100448.78;5069032;28;20462;-70
2023/07/31 03:38:34;;;;;;;7.60;1.80;;;;;;;16.06;100.00;100453.75;5070210;28;20482;-70
2023/07/31 03:41:02;;;;;;;5.20;1.40;;;;;;;16.01;100.00;100448.53;5070009;28;20988;-70
2023/07/31 03:43:29;;;;;;;7.03;2.50;;;;;;;15.97;100.00;100444.88;5070624;28;20438;-70
2023/07/31 03:45:55;;;;;;;5.90;1.97;;;;;;;15.95;100.00;100438.97;5069779;28;20480;-70
2023/07/31 03:48:22;;;;;;;7.60;2.83;;;;;;;15.94;100.00;100443.66;5069785;28;20434;-70
2023/07/31 03:50:49;;;;;;;6.43;1.77;;;;;;;15.94;100.00;100442.81;5070417;28;20443;-70
2023/07/31 03:53:15;;;;;;;6.17;1.63;;;;;;;15.98;100.00;100441.84;5070359;28;20446;-70
2023/07/31 03:55:42;;;;;;;5.63;1.70;;;;;;;16.00;100.00;100446.94;5069924;28;20505;-70
2023/07/31 03:58:10;;;;;;;5.37;1.50;;;;;;;15.93;100.00;100436.56;5070634;28;20482;-70
2023/07/31 04:00:36;;;;;;;5.40;1.43;;;;;;;15.93;100.00;100438.50;5069852;28;20441;-70
2023/07/31 04:03:03;;;;;;;6.00;1.80;;;;;;;15.96;100.00;100440.56;5070738;28;20453;-71
2023/07/31 04:05:31;;;;;;;6.30;1.50;;;;;;;15.93;100.00;100438.50;5069545;28;20458;-70
2023/07/31 04:07:58;;;;;;;8.50;2.20;;;;;;;15.93;100.00;100436.56;5069001;28;20507;-70
2023/07/31 04:10:24;;;;;;;6.37;2.13;;;;;;;15.94;100.00;100434.63;5069529;28;20419;-70
2023/07/31 04:12:51;;;;;;;6.27;1.47;;;;;;;15.97;100.00;100425.75;5068640;28;20498;-70
2023/07/31 04:15:19;;;;;;;5.17;1.40;;;;;;;15.99;100.00;100423.50;5068787;28;20474;-70
2023/07/31 04:17:45;;;;;;;8.70;2.00;;;;;;;15.95;100.00;100423.38;5066334;28;20482;-69
2023/07/31 04:20:12;;;;;;;6.20;1.90;;;;;;;15.97;100.00;100421.09;5068452;28;20481;-70
2023/07/31 04:22:39;;;;;;;6.20;1.90;;;;;;;15.98;100.00;100422.72;5070778;28;20438;-70
2023/07/31 04:25:06;;;;;;;5.70;1.70;;;;;;;15.98;100.00;100421.88;5067181;28;20467;-70
2023/07/31 04:27:33;;;;;;;7.33;1.90;;;;;;;15.96;100.00;100424.19;5067299;28;20438;-70
2023/07/31 04:29:59;;;;;;;5.23;1.47;;;;;;;15.99;100.00;100429.75;5067010;28;20453;-70
2023/07/31 04:32:28;;;;;;;6.00;1.77;;;;;;;16.01;100.00;100418.47;5065917;28;20446;-70
2023/07/31 04:34:55;;;;;;;5.57;1.77;;;;;;;16.00;100.00;100417.69;5065509;28;20482;-70
2023/07/31 04:37:22;;;;;;;5.67;1.77;;;;;;;15.99;100.00;100413.38;5067410;28;20478;-70
2023/07/31 04:39:48;;;;;;;6.30;1.90;;;;;;;16.01;100.00;100413.00;5066473;28;20473;-70
2023/07/31 04:42:15;;;;;;;7.53;2.00;;;;;;;16.03;100.00;100410.75;5066921;28;20466;-70
2023/07/31 04:44:41;;;;;;;6.27;1.90;;;;;;;16.05;100.00;100413.94;5067065;28;20517;-70
2023/07/31 04:47:08;;;;;;;6.40;1.73;;;;;;;16.05;100.00;100406.53;5068297;28;20438;-70
2023/07/31 04:49:36;;;;;;;6.93;2.17;;;;;;;16.08;100.00;100411.31;5066040;28;20434;-70
2023/07/31 04:52:03;;;;;;;8.90;2.33;;;;;;;16.09;100.00;100412.09;5066977;28;20445;-70
2023/07/31 04:54:30;;;;;;;7.17;1.83;;;;;;;16.10;100.00;100421.88;5066413;28;20450;-70
2023/07/31 04:56:57;;;;;;;7.90;2.50;;;;;;;16.09;100.00;100412.09;5066939;28;20853;-71
2023/07/31 04:59:23;;;;;;;5.40;1.50;;;;;;;16.12;100.00;100414.16;5066044;28;20562;-70
2023/07/31 05:01:50;;;;;;;5.90;1.70;;;;;;;16.17;100.00;100407.66;5067285;28;20430;-71
2023/07/31 05:04:17;;;;;;;8.20;2.37;;;;;;;16.21;100.00;100416.78;5066468;28;20501;-71
2023/07/31 05:06:45;;;;;;;6.10;1.80;;;;;;;16.22;100.00;100410.97;5066120;28;20484;-70
2023/07/31 05:09:12;;;;;;;5.90;1.70;;;;;;;16.28;100.00;100409.56;5067564;28;20461;-71
2023/07/31 05:11:40;;;;;;;5.77;1.57;;;;;;;16.33;100.00;100417.53;5067374;28;20446;-71
2023/07/31 05:14:07;;;;;;;6.67;2.33;;;;;;;16.37;100.00;100407.50;5067661;28;20961;-70
2023/07/31 05:16:34;;;;;;;9.13;2.33;;;;;;;16.41;100.00;100404.88;5066854;28;21016;-70
2023/07/31 05:19:00;;;;;;;6.00;2.00;;;;;;;16.49;100.00;100411.38;5067415;28;20495;-70
2023/07/31 05:21:27;;;;;;;8.20;2.30;;;;;;;16.53;100.00;100404.06;5066989;28;20477;-70
2023/07/31 05:23:55;;;;;;;5.70;2.00;;;;;;;16.53;100.00;100406.81;5066682;28;20438;-70
2023/07/31 05:26:22;;;;;;;6.87;1.80;;;;;;;16.51;100.00;100407.16;5062880;28;20520;-70
2023/07/31 05:28:48;;;;;;;6.10;1.83;;;;;;;16.53;100.00;100398.59;5056315;28;20529;-69
2023/07/31 05:31:15;;;;;;;5.20;1.53;;;;;;;16.55;100.00;100402.56;5055863;28;20438;-70
2023/07/31 05:33:42;;;;;;;5.97;2.07;;;;;;;16.52;100.00;100403.28;5061973;28;20434;-70
2023/07/31 05:36:09;;;;;;;8.77;2.17;;;;;;;16.51;100.00;100400.88;5063646;28;20490;-71
2023/07/31 05:38:35;;;;;;;5.87;1.80;;;;;;;16.49;100.00;100397.69;5063132;28;20546;-71
2023/07/31 05:41:03;;;;;;;7.30;1.90;;;;;;;16.56;100.00;100395.97;5063097;28;20462;-71
2023/07/31 05:43:30;;;;;;;5.87;1.47;;;;;;;16.60;100.00;100393.31;5064804;28;20534;-71
2023/07/31 05:45:57;;;;;;;6.67;1.70;;;;;;;16.56;100.00;100392.47;5061951;28;20454;-72
2023/07/31 05:48:23;;;;;;;6.03;1.43;;;;;;;16.55;100.00;100390.84;5066923;28;20462;-72
2023/07/31 05:50:50;;;;;;;13.87;1.90;;;;;;;16.57;100.00;100388.56;5064710;28;20446;-72
2023/07/31 05:53:16;;;;;;;6.53;1.97;;;;;;;16.56;100.00;100387.78;5063326;28;20786;-72
2023/07/31 05:55:43;;;;;;;5.07;1.30;;;;;;;16.59;100.00;100383.53;5063111;28;20509;-72
2023/07/31 05:58:11;;;;;;;5.80;1.60;;;;;;;16.57;100.00;100377.63;5063174;28;20488;-72
2023/07/31 06:00:38;;;;;;;5.30;1.17;;;;;;;16.61;100.00;100386.75;5063152;28;20458;-72
2023/07/31 06:03:05;;;;;;;5.33;1.33;;;;;;;16.65;100.00;100384.91;5063217;28;20478;-72
2023/07/31 06:05:32;;;;;;;5.60;1.17;;;;;;;16.69;100.00;100385.81;5064164;28;20461;-72
2023/07/31 06:07:58;;;;;;;5.30;1.40;;;;;;;16.70;100.00;100387.41;5062877;28;20453;-72
2023/07/31 06:10:25;;;;;;;6.77;1.80;;;;;;;16.69;100.00;100387.72;5061456;28;20477;-71
2023/07/31 06:12:52;;;;;;;6.30;1.50;;;;;;;16.70;100.00;100384.66;5053316;28;20440;-71
2023/07/31 06:15:20;;;;;;;5.63;1.73;;;;;;;16.70;100.00;100386.59;5053889;28;20473;-71
2023/07/31 06:17:47;;;;;;;9.70;1.90;;;;;;;16.68;100.00;100389.66;5056417;28;20481;-71
2023/07/31 06:20:14;;;;;;;9.87;1.70;;;;;;;16.65;100.00;100385.69;5056708;28;20496;-70
2023/07/31 06:22:41;;;;;;;6.07;1.37;;;;;;;16.69;100.00;100385.00;5056748;28;20465;-71
2023/07/31 06:25:08;;;;;;;4.93;1.50;;;;;;;16.71;100.00;100379.97;5056983;28;20540;-70
2023/07/31 06:27:35;;;;;;;5.20;1.20;;;;;;;16.71;100.00;100386.25;5056662;28;20481;-70
2023/07/31 06:30:01;;;;;;;4.90;1.20;;;;;;;16.73;100.00;100383.97;5056572;28;20438;-71
2023/07/31 06:32:29;;;;;;;5.10;1.50;;;;;;;16.79;100.00;100381.81;5056545;28;20438;-71
2023/07/31 06:34:56;;;;;;;7.60;1.60;;;;;;;16.83;100.00;100386.25;5056197;28;20513;-70
2023/07/31 06:37:22;;;;;;;5.10;1.10;;;;;;;16.90;100.00;100375.47;5056422;28;20448;-70
2023/07/31 06:39:49;;;;;;;5.90;1.33;;;;;;;16.93;100.00;100374.00;5056753;28;20837;-70
2023/07/31 06:42:15;;;;;;;5.70;1.43;;;;;;;16.93;100.00;100378.69;5056362;28;20441;-70
2023/07/31 06:44:42;;;;;;;6.20;1.20;;;;;;;16.95;100.00;100370.91;5055934;28;20945;-70
2023/07/31 06:47:10;;;;;;;5.83;1.33;;;;;;;17.05;100.00;100375.88;5056053;28;20533;-70
2023/07/31 06:49:38;;;;;;;4.97;1.07;;;;;;;17.17;100.00;100375.00;5056120;28;20431;-71
2023/07/31 06:52:05;;;;;;;8.57;1.63;;;;;;;17.17;100.00;100378.53;5056160;28;20449;-71
2023/07/31 06:54:32;;;;;;;8.10;1.60;;;;;;;17.23;100.00;100377.16;5055780;28;20892;-70
2023/07/31 06:56:58;;;;;;;9.50;2.13;;;;;;;17.27;100.00;100380.00;5056431;28;20442;-70
2023/07/31 06:59:25;;;;;;;5.10;1.13;;;;;;;17.29;100.00;100385.91;5056308;28;20490;-70
2023/07/31 07:01:52;;;;;;;5.07;1.20;;;;;;;17.27;100.00;100380.00;5055960;28;20525;-70
2023/07/31 07:04:18;;;;;;;5.10;1.10;;;;;;;17.29;100.00;100389.44;5055970;28;20434;-70
2023/07/31 07:06:46;;;;;;;6.23;1.20;;;;;;;17.28;100.00;100382.38;5056054;28;20490;-70
2023/07/31 07:09:13;;;;;;;5.93;1.30;;;;;;;17.30;100.00;100382.81;5055546;28;20529;-70
2023/07/31 07:11:39;;;;;;;6.03;1.50;;;;;;;17.36;100.00;100381.41;5055506;28;20968;-70
2023/07/31 07:14:06;;;;;;;5.53;1.37;;;;;;;17.37;100.00;100385.72;5055787;28;20529;-70
2023/07/31 07:16:33;;;;;;;6.00;1.23;;;;;;;17.42;100.00;100387.41;5055719;28;20490;-70
2023/07/31 07:18:59;;;;;;;5.30;1.13;;;;;;;17.38;100.00;100384.59;5055576;28;20489;-70
2023/07/31 07:21:26;;;;;;;5.00;1.17;;;;;;;17.45;100.00;100383.19;5055625;28;20529;-70
2023/07/31 07:23:54;;;;;;;5.27;1.20;;;;;;;17.49;100.00;100378.59;5055238;28;20922;-70
2023/07/31 07:26:20;;;;;;;4.90;1.00;;;;;;;17.44;100.00;100376.09;5055453;28;20497;-70
2023/07/31 07:28:47;;;;;;;5.17;1.00;;;;;;;17.45;100.00;100383.19;5055108;28;20922;-70
2023/07/31 07:31:14;;;;;;;6.33;1.50;;;;;;;17.44;100.00;100379.63;5055228;28;20805;-70
2023/07/31 07:33:40;;;;;;;5.70;1.13;;;;;;;17.40;100.00;100382.31;5055151;28;20495;-70
2023/07/31 07:36:09;;;;;;;5.23;1.07;;;;;;;17.34;100.00;100374.69;5055354;28;20895;-70
2023/07/31 07:38:36;;;;;;;5.13;0.93;;;;;;;17.29;100.00;100377.69;5055227;28;20993;-69
2023/07/31 07:41:04;;;;;;;4.93;1.20;;;;;;;17.33;100.00;100381.31;5055676;28;20477;-70
2023/07/31 07:43:30;;;;;;;6.03;1.67;;;;;;;17.37;100.00;100372.03;5055474;28;20449;-70
2023/07/31 07:45:57;;;;;;;6.00;1.60;;;;;;;17.46;100.00;100371.88;5055554;28;20580;-70
2023/07/31 07:48:25;;;;;;;5.20;1.00;;;;;;;17.38;100.00;100367.34;5054838;28;20434;-71
2023/07/31 07:50:52;;;;;;;5.33;1.20;;;;;;;17.32;100.00;100372.31;5055289;28;20485;-70
2023/07/31 07:53:18;;;;;;;9.50;1.50;;;;;;;17.33;100.00;100367.63;5054712;28;20809;-68
2023/07/31 07:55:45;;;;;;;5.73;1.47;;;;;;;17.31;100.00;100365.25;5054970;28;20485;-73
2023/07/31 07:58:13;;;;;;;5.10;1.30;;;;;;;17.27;100.00;100358.88;5054733;28;20442;-70
2023/07/31 08:00:40;;;;;;;5.20;1.30;;;;;;;17.28;100.00;100368.69;5055039;28;20448;-68
2023/07/31 08:03:07;;;;;;;5.10;1.27;;;;;;;17.28;100.00;100360.47;5054578;28;20445;-67
2023/07/31 08:05:34;;;;;;;6.17;1.77;;;;;;;17.25;100.00;100350.22;5055336;28;20458;-68
2023/07/31 08:08:00;;;;;;;6.43;1.30;;;;;;;17.23;100.00;100347.03;5066544;22;20590;-69
2023/07/31 08:10:27;;;;;;;12.40;1.87;;;;;;;17.23;100.00;100355.25;5035076;28;20850;-70
2023/07/31 08:12:53;;;;;;;5.40;1.20;;;;;;;17.27;100.00;100360.81;5035031;28;20447;-71
2023/07/31 08:15:21;;;;;;;6.53;1.60;;;;;;;17.34;100.00;100358.25;5034750;28;20459;-70
2023/07/31 08:17:48;;;;;;;5.90;1.60;;;;;;;17.34;100.00;100359.06;5034954;28;20526;-69
2023/07/31 08:20:15;;;;;;;5.60;1.40;;;;;;;17.41;100.00;100355.72;5034681;28;20483;-69
2023/07/31 08:22:42;;;;;;;5.20;1.20;;;;;;;17.44;100.00;100351.44;5034854;28;20443;-69
2023/07/31 08:25:09;;;;;;;4.87;0.97;;;;;;;17.53;100.00;100347.41;5034562;28;20546;-70
2023/07/31 08:27:35;;;;;;;5.40;1.40;;;;;;;17.59;100.00;100354.22;5034503;28;20941;-70
2023/07/31 08:30:02;;;;;;;5.20;1.20;;;;;;;17.55;100.00;100344.31;5034818;28;20463;-69
2023/07/31 08:32:30;;;;;;;8.20;1.30;;;;;;;17.51;100.00;100349.69;5034368;28;20446;-69
2023/07/31 08:34:57;;;;;;;5.60;1.13;;;;;;;17.50;100.00;100350.06;5034622;28;20550;-69
2023/07/31 08:37:23;;;;;;;5.20;1.40;;;;;;;17.54;100.00;100348.22;5033928;28;20474;-70
2023/07/31 08:39:50;;;;;;;5.10;1.17;;;;;;;17.67;100.00;100352.44;5033167;28;20478;-70
2023/07/31 08:42:16;;;;;;;5.90;1.30;;;;;;;17.83;100.00;100349.69;5034250;28;20458;-69
2023/07/31 08:44:44;;;;;;;5.77;1.30;;;;;;;17.97;100.00;100352.78;5034251;28;20497;-67
2023/07/31 08:47:11;;;;;;;5.17;1.27;;;;;;;18.15;100.00;100353.19;5033752;28;20939;-69
2023/07/31 08:49:40;;;;;;;5.10;1.13;;;;;;;18.24;100.00;100347.50;5033690;28;20607;-68
2023/07/31 08:52:08;;;;;;;5.17;1.20;;;;;;;18.30;100.00;100346.88;5034103;28;20439;-69
2023/07/31 08:54:34;;;;;;;7.33;1.50;;;;;;;18.34;100.00;100345.00;5033879;28;20538;-71
2023/07/31 08:57:01;;;;;;;5.17;1.07;;;;;;;18.40;100.00;100343.53;5033933;28;20434;-69
2023/07/31 08:59:30;;;;;;;5.90;1.40;;;;;;;18.41;100.00;100349.81;5033753;28;20542;-69
2023/07/31 09:01:58;;;;;;;5.10;1.30;;;;;;;18.40;100.00;100340.00;5033811;28;20519;-68
2023/07/31 09:04:26;;;;;;;4.90;0.80;;;;;;;18.36;100.00;100336.41;5033969;28;20630;-68
2023/07/31 09:07:00;;;;;;;6.07;1.30;;;;;;;18.27;100.00;100335.81;5033548;28;20838;-69
2023/07/31 09:09:27;;;;;;;6.03;1.20;;;;;;;18.14;100.00;100351.59;5033432;28;20443;-68
2023/07/31 09:11:54;;;;;;;4.80;0.97;;;;;;;18.11;100.00;100344.09;5034071;28;20802;-67
2023/07/31 09:14:21;;;;;;;5.93;0.80;;;;;;;18.05;100.00;100342.78;5033412;28;20966;-68
2023/07/31 09:16:55;;;;;;;4.77;0.93;;;;;;;17.95;100.00;100340.59;5033547;28;20487;-69
2023/07/31 09:19:30;;;;;;;4.80;0.80;;;;;;;17.76;100.00;100346.81;5033261;28;21019;-69
2023/07/31 09:21:58;;;;;;;5.20;0.93;;;;;;;17.69;100.00;100341.13;5033327;28;20462;-70
2023/07/31 09:24:28;;;;;;;5.77;1.00;;;;;;;17.62;100.00;100341.75;5033500;28;20444;-70
2023/07/31 09:26:56;;;;;;;5.10;0.83;;;;;;;17.55;100.00;100347.84;5033168;28;20493;-67
2023/07/31 09:29:23;;;;;;;4.70;0.80;;;;;;;17.47;100.00;100348.03;5033178;28;20450;-67
2023/07/31 09:31:51;;;;;;;4.60;0.70;;;;;;;17.43;100.00;100339.72;5033447;28;20496;-67
2023/07/31 09:34:18;;;;;;;5.50;0.70;;;;;;;17.29;100.00;100342.88;5033311;28;20443;-67
2023/07/31 09:36:46;;;;;;;4.60;0.70;;;;;;;17.27;100.00;100334.25;5033008;28;20455;-67
2023/07/31 09:39:15;;;;;;;5.20;0.90;;;;;;;17.29;100.00;100331.16;5033733;28;20572;-67
2023/07/31 09:41:45;;;;;;;4.57;0.80;;;;;;;17.34;100.00;100334.41;5033120;28;20900;-67
2023/07/31 09:44:12;;;;;;;4.80;0.70;;;;;;;17.37;100.00;100333.72;5033473;28;20783;-67
2023/07/31 09:46:38;;;;;;;5.70;0.90;;;;;;;17.44;100.00;100335.03;5033181;28;20887;-67
2023/07/31 09:49:10;;;;;;;4.90;0.93;;;;;;;17.45;100.00;100334.69;5033442;28;20479;-67
2023/07/31 09:51:38;;;;;;;4.80;0.70;;;;;;;17.49;100.00;100329.31;5036209;28;20858;-67
2023/07/31 09:54:17;;;;;;;4.73;0.90;;;;;;;17.46;100.00;100325.31;5037492;28;20452;-67
2023/07/31 09:56:45;;;;;;;4.47;0.70;;;;;;;17.51;100.00;100325.06;5036909;28;21018;-67
2023/07/31 09:59:13;;;;;;;4.57;0.60;;;;;;;17.54;100.00;100320.81;5037127;28;20485;-67
2023/07/31 10:01:42;;;;;;;7.60;0.90;;;;;;;17.66;100.00;100323.44;5037437;28;20434;-67
2023/07/31 10:04:09;;;;;;;5.40;0.90;;;;;;;17.74;100.00;100319.75;5037348;28;20446;-67
2023/07/31 10:06:37;;;;;;;4.73;0.87;;;;;;;17.76;100.00;100319.41;5036630;28;20834;-67
2023/07/31 10:09:07;;;;;;;8.30;1.10;;;;;;;17.75;100.00;100331.50;5036741;28;20545;-68
2023/07/31 10:11:43;;;;;;;5.80;1.07;;;;;;;17.64;100.00;100326.53;5036951;28;20443;-68
2023/07/31 10:14:11;;;;;;;6.27;1.30;;;;;;;17.67;100.00;100313.31;5036991;28;20431;-68
2023/07/31 10:16:40;;;;;;;4.83;0.90;;;;;;;17.68;100.00;100314.88;5036776;28;20466;-67
2023/07/31 10:19:08;;;;;;;5.17;1.00;;;;;;;17.70;100.00;100309.84;5036760;28;20448;-67
2023/07/31 10:21:35;;;;;;;6.20;1.40;;;;;;;17.72;100.00;100305.59;5036813;28;20492;-67
2023/07/31 10:24:04;;;;;;;4.90;1.20;;;;;;;17.74;100.00;100308.00;5036460;28;20518;-67
2023/07/31 10:26:32;;;;;;;5.23;1.10;;;;;;;17.79;100.00;100308.50;5036429;28;20459;-67
2023/07/31 10:29:00;;;;;;;4.73;1.10;;;;;;;17.84;100.00;100302.78;5036461;28;20947;-67
2023/07/31 10:31:28;;;;;;;11.80;2.50;;;;;;;17.85;100.00;100301.63;5036965;28;20439;-67
2023/07/31 10:33:57;;;;;;;6.23;1.80;;;;;;;17.88;100.00;100292.69;5036993;28;20526;-67
2023/07/31 10:36:23;;;;;;;5.50;1.50;;;;;;;18.00;100.00;100290.97;5036481;28;20538;-67
2023/07/31 10:38:50;;;;;;;6.20;1.83;;;;;;;18.15;100.00;100290.16;5036840;28;20479;-67
2023/07/31 10:41:17;;;;;;;6.57;1.87;;;;;;;18.33;100.00;100288.56;5036407;28;20858;-67
2023/07/31 10:43:47;;;;;;;9.53;1.97;;;;;;;18.55;100.00;100281.56;5036066;28;20954;-67
2023/07/31 10:46:15;;;;;;;6.50;1.67;;;;;;;18.78;100.00;100276.13;5036349;28;20451;-67
2023/07/31 10:48:42;;;;;;;6.93;2.27;;;;;;;19.03;100.00;100281.25;5036285;28;20478;-67
2023/07/31 10:51:10;;;;;;;6.30;1.83;;;;;;;19.32;100.00;100271.56;5036656;28;20467;-67
2023/07/31 10:53:38;;;;;;;7.80;2.30;;;;;;;19.53;100.00;100266.41;5036263;28;20443;-67
2023/07/31 10:56:05;;;;;;;6.10;1.50;;;;;;;19.59;100.00;100255.88;5036143;28;20899;-67
2023/07/31 10:58:33;;;;;;;7.77;2.00;;;;;;;19.70;100.00;100270.63;5036109;28;20444;-67
2023/07/31 11:01:01;;;;;;;7.70;1.80;;;;;;;19.89;100.00;100265.00;5036088;28;20482;-67
2023/07/31 11:03:42;;;;;;;5.93;1.63;;;;;;;19.89;100.00;100269.72;5035021;28;20445;-67
2023/07/31 11:06:09;;;;;;;8.23;1.80;;;;;;;19.91;100.00;100259.13;5035601;28;20896;-67
2023/07/31 11:08:41;;;;;;;7.87;2.00;;;;;;;19.79;100.00;100271.16;5036181;28;20879;-67
2023/07/31 11:11:10;;;;;;;8.23;1.53;;;;;;;19.81;100.00;100257.81;5035996;28;20426;-67
2023/07/31 11:13:42;;;;;;;6.13;1.80;;;;;;;19.85;100.00;100264.16;5035988;28;20431;-67
2023/07/31 11:16:09;;;;;;;6.70;1.53;;;;;;;20.00;100.00;100265.13;5035526;28;20549;-67
2023/07/31 11:18:39;;;;;;;5.90;1.63;;;;;;;20.31;99.83;100266.69;5036435;28;20534;-67